createdAt,value
2023-05-12T00:02:47.171Z,96901.44
2023-05-12T00:05:48.654Z,96904.69
2023-05-12T00:08:50.847Z,96899.31
2023-05-12T00:11:52.493Z,96899.13
2023-05-12T00:14:54.104Z,96901.25
2023-05-12T00:17:55.688Z,96899.41
2023-05-12T00:20:57.303Z,96896.13
2023-05-12T00:23:58.798Z,96896.50
2023-05-12T00:27:00.797Z,96897.75
2023-05-12T00:30:02.360Z,96887.00
2023-05-12T00:33:04.891Z,96892.56
2023-05-12T00:36:07.046Z,96890.72
2023-05-12T00:39:08.526Z,96888.47
2023-05-12T00:42:11.916Z,96886.28
2023-05-12T00:45:13.470Z,96883.06
2023-05-12T00:48:15.458Z,96873.88
2023-05-12T00:51:17.309Z,96875.50
2023-05-12T00:54:18.974Z,96868.59
2023-05-12T00:57:22.678Z,96868.22
2023-05-12T01:00:24.297Z,96873.28
2023-05-12T01:03:26.258Z,96873.88
2023-05-12T01:07:05.576Z,96877.97
2023-05-12T01:10:21.810Z,96873.06
2023-05-12T01:13:23.652Z,96879.16
2023-05-12T01:16:31.295Z,96870.22
2023-05-12T01:19:52.019Z,96873.97
2023-05-12T01:22:55.238Z,96875.41
2023-05-12T01:26:06.642Z,96876.03
2023-05-12T01:29:08.585Z,96872.75
2023-05-12T01:32:10.747Z,96872.75
2023-05-12T01:35:12.488Z,96872.75
2023-05-12T01:38:19.668Z,96870.75
2023-05-12T01:41:21.553Z,96869.84
2023-05-12T01:44:23.061Z,96866.31
2023-05-12T01:47:24.608Z,96868.22
2023-05-12T01:50:32.595Z,96872.50
2023-05-12T01:53:35.342Z,96876.59
2023-05-12T01:56:37.115Z,96876.38
2023-05-12T01:59:38.650Z,96873.13
2023-05-12T02:02:43.220Z,96875.94
2023-05-12T02:05:46.483Z,96872.31
2023-05-12T02:08:48.453Z,96869.94
2023-05-12T02:11:50.546Z,96873.00
2023-05-12T02:14:52.096Z,96863.94
2023-05-12T02:17:54.427Z,96865.94
2023-05-12T02:20:57.220Z,96868.41
2023-05-12T02:23:58.716Z,96862.94
2023-05-12T02:27:00.213Z,96862.94
2023-05-12T02:30:02.022Z,96871.84
2023-05-12T02:33:06.819Z,96872.13
2023-05-12T02:36:08.930Z,96870.47
2023-05-12T02:39:10.426Z,96871.50
2023-05-12T02:42:11.951Z,96869.66
2023-05-12T02:45:13.772Z,96873.97
2023-05-12T02:48:15.581Z,96872.31
2023-05-12T02:51:17.106Z,96877.22
2023-05-12T02:54:18.663Z,96872.31
2023-05-12T02:57:20.314Z,96868.47
2023-05-12T03:00:22.175Z,96862.19
2023-05-12T03:03:23.921Z,96869.09
2023-05-12T03:06:25.703Z,96867.47
2023-05-12T03:09:27.567Z,96858.28
2023-05-12T03:12:29.635Z,96860.06
2023-05-12T03:15:31.313Z,96859.44
2023-05-12T03:18:33.067Z,96863.28
2023-05-12T03:21:34.776Z,96860.22
2023-05-12T03:24:36.737Z,96853.91
2023-05-12T03:27:38.287Z,96863.66
2023-05-12T03:30:40.472Z,60547.97
2023-05-12T03:33:41.994Z,60547.97
